createdAt,value
2023-01-17T00:02:20.301Z,6.70
2023-01-17T00:05:08.035Z,6.60
2023-01-17T00:07:54.395Z,6.60
2023-01-17T00:10:25.784Z,6.40
2023-01-17T00:12:56.692Z,6.30
2023-01-17T00:15:27.120Z,6.30
2023-01-17T00:17:56.226Z,6.20
2023-01-17T00:20:45.313Z,6.20
2023-01-17T00:23:33.896Z,6.10
2023-01-17T00:26:05.922Z,6.10
2023-01-17T00:28:35.486Z,6.00
2023-01-17T00:31:03.843Z,6.00
2023-01-17T00:33:32.018Z,5.90
2023-01-17T00:36:02.725Z,5.90
2023-01-17T00:38:32.025Z,5.90
2023-01-17T00:41:02.863Z,5.90
2023-01-17T00:43:49.648Z,5.90
2023-01-17T00:46:36.380Z,5.90
2023-01-17T00:49:23.441Z,5.90
2023-01-17T00:52:11.270Z,6.00
2023-01-17T00:54:57.487Z,6.00
2023-01-17T00:57:43.651Z,6.00
2023-01-17T01:00:31.039Z,6.00
2023-01-17T01:03:17.106Z,6.10
2023-01-17T01:06:03.241Z,6.10
2023-01-17T01:08:50.979Z,6.20
2023-01-17T01:11:39.238Z,6.20
2023-01-17T01:14:26.848Z,6.20
2023-01-17T01:17:13.328Z,6.30
2023-01-17T01:19:59.513Z,6.40
2023-01-17T01:22:45.700Z,6.50
2023-01-17T01:25:33.427Z,6.60
2023-01-17T01:28:24.324Z,6.70
2023-01-17T01:31:10.605Z,6.80
2023-01-17T01:33:40.057Z,6.80
2023-01-17T01:36:10.278Z,6.90
2023-01-17T01:38:39.901Z,7.10
2023-01-17T01:41:10.576Z,7.20
2023-01-17T01:43:46.567Z,7.30
2023-01-17T01:46:19.297Z,7.40
2023-01-17T01:48:51.917Z,7.40
2023-01-17T01:51:27.221Z,7.40
2023-01-17T01:54:01.520Z,7.40
2023-01-17T01:56:33.206Z,7.50
2023-01-17T01:59:05.611Z,7.50
2023-01-17T02:01:37.763Z,7.50
2023-01-17T02:04:10.309Z,7.50
2023-01-17T02:06:43.163Z,7.60
2023-01-17T02:09:15.540Z,7.70
2023-01-17T02:11:48.278Z,7.80
2023-01-17T02:14:18.110Z,7.80
2023-01-17T02:16:58.276Z,7.90
2023-01-17T02:19:53.111Z,8.00
2023-01-17T02:22:49.529Z,8.10
2023-01-17T02:25:46.108Z,8.30
2023-01-17T02:28:40.252Z,8.40
2023-01-17T02:31:15.492Z,8.50
2023-01-17T02:33:51.493Z,8.50
2023-01-17T02:36:24.717Z,8.50
2023-01-17T02:38:58.669Z,8.50
2023-01-17T02:41:32.565Z,8.50
2023-01-17T02:44:04.498Z,8.50
2023-01-17T02:46:34.925Z,8.60
2023-01-17T02:49:03.942Z,8.60
2023-01-17T02:51:46.285Z,8.60
2023-01-17T02:54:37.569Z,8.70
2023-01-17T02:57:26.039Z,8.70
2023-01-17T03:00:02.350Z,8.80
2023-01-17T03:02:42.357Z,8.90
2023-01-17T03:05:14.043Z,9.00
2023-01-17T03:07:44.677Z,9.00
2023-01-17T03:10:16.449Z,9.00
2023-01-17T03:12:46.129Z,9.00
2023-01-17T03:15:18.195Z,9.00
2023-01-17T03:17:51.045Z,9.10
2023-01-17T03:20:22.493Z,9.10
2023-01-17T03:22:51.679Z,9.10
2023-01-17T03:25:20.529Z,9.10
2023-01-17T03:27:49.563Z,9.30
2023-01-17T03:30:20.603Z,9.30
2023-01-17T03:32:51.404Z,9.40
2023-01-17T03:35:20.423Z,9.40
2023-01-17T03:37:49.371Z,9.50
2023-01-17T03:40:18.775Z,9.50
2023-01-17T03:42:47.828Z,9.50
2023-01-17T03:45:16.898Z,9.50
2023-01-17T03:47:45.817Z,9.50
2023-01-17T03:50:16.402Z,9.50
2023-01-17T03:52:45.364Z,9.40
2023-01-17T03:55:14.361Z,9.40
2023-01-17T03:57:43.309Z,9.50
2023-01-17T04:00:13.896Z,9.50
2023-01-17T04:02:43.043Z,9.50
2023-01-17T04:05:12.136Z,9.50
2023-01-17T04:07:43.828Z,9.50
2023-01-17T04:10:13.160Z,9.50
2023-01-17T04:12:42.071Z,9.40
2023-01-17T04:15:11.743Z,9.50
2023-01-17T04:17:40.855Z,9.50
2023-01-17T04:20:15.241Z,9.50
2023-01-17T04:22:45.668Z,9.50
2023-01-17T04:25:14.871Z,9.60
2023-01-17T04:27:43.744Z,9.60
2023-01-17T04:30:14.055Z,9.70
2023-01-17T04:33:02.358Z,9.70
2023-01-17T04:35:33.595Z,9.70
2023-01-17T04:38:04.271Z,9.70
2023-01-17T04:40:33.238Z,9.70
2023-01-17T04:43:02.284Z,9.60
2023-01-17T04:45:31.284Z,9.60
2023-01-17T04:48:05.827Z,9.60
2023-01-17T04:50:35.330Z,9.60
2023-01-17T04:53:05.762Z,9.70
2023-01-17T04:55:34.865Z,9.70
2023-01-17T04:58:03.792Z,9.80
2023-01-17T05:00:32.716Z,9.90
2023-01-17T05:03:01.832Z,10.00
2023-01-17T05:05:31.519Z,10.10
2023-01-17T05:08:00.742Z,10.10
2023-01-17T05:10:31.079Z,10.20
2023-01-17T05:13:01.131Z,10.20
2023-01-17T05:15:30.118Z,10.30
2023-01-17T05:17:59.101Z,10.40
2023-01-17T05:20:28.719Z,10.60
2023-01-17T05:22:58.854Z,10.70
2023-01-17T05:25:29.879Z,10.80
2023-01-17T05:28:01.342Z,10.90
2023-01-17T05:30:31.604Z,11.00
2023-01-17T05:33:00.945Z,11.10
2023-01-17T05:35:32.776Z,11.10
2023-01-17T05:38:01.966Z,11.20
2023-01-17T05:40:33.145Z,11.20
2023-01-17T05:43:04.870Z,11.20
2023-01-17T05:45:35.046Z,11.20
2023-01-17T05:48:04.840Z,11.20
2023-01-17T05:50:35.357Z,11.20
2023-01-17T05:53:06.216Z,11.10
2023-01-17T05:55:54.026Z,11.00
2023-01-17T05:58:24.793Z,10.90
2023-01-17T06:00:56.945Z,10.90
2023-01-17T06:03:26.136Z,10.80
2023-01-17T06:05:55.070Z,10.80
2023-01-17T06:08:23.997Z,10.90
2023-01-17T06:10:52.928Z,10.90
2023-01-17T06:13:22.165Z,11.00
2023-01-17T06:15:52.583Z,11.10
2023-01-17T06:18:21.759Z,11.20
2023-01-17T06:20:54.643Z,11.30
2023-01-17T06:23:25.276Z,11.40
2023-01-17T06:25:54.230Z,11.50
2023-01-17T06:28:24.949Z,11.60
2023-01-17T06:30:55.374Z,11.60
2023-01-17T06:33:24.842Z,11.70
2023-01-17T06:35:54.650Z,11.70
2023-01-17T06:38:23.617Z,11.70
2023-01-17T06:40:52.999Z,11.70
2023-01-17T06:43:22.071Z,11.80
2023-01-17T06:45:51.442Z,11.80
2023-01-17T06:48:21.883Z,11.90
2023-01-17T06:50:51.165Z,12.00
2023-01-17T06:53:20.140Z,12.00
2023-01-17T06:55:49.088Z,12.10
2023-01-17T06:58:17.981Z,12.10
2023-01-17T07:00:47.148Z,12.20
2023-01-17T07:03:22.900Z,12.40
2023-01-17T07:05:52.294Z,12.70
2023-01-17T07:08:22.019Z,13.20
2023-01-17T07:10:51.220Z,13.70
2023-01-17T07:13:20.179Z,14.40
2023-01-17T07:15:49.289Z,15.00
2023-01-17T07:18:20.804Z,15.50
2023-01-17T07:20:51.652Z,16.10
2023-01-17T07:23:21.917Z,16.50
2023-01-17T07:25:53.868Z,17.00
2023-01-17T07:28:23.081Z,17.40
2023-01-17T07:30:52.072Z,17.70
2023-01-17T07:33:21.732Z,18.00
2023-01-17T07:35:52.043Z,18.20
2023-01-17T07:38:22.033Z,18.30
2023-01-17T07:40:51.135Z,18.40
2023-01-17T07:43:20.119Z,18.40
2023-01-17T07:45:51.379Z,18.30
2023-01-17T07:48:21.370Z,18.20
2023-01-17T07:50:56.157Z,18.10
2023-01-17T07:53:26.217Z,18.10
2023-01-17T07:55:55.865Z,18.20
2023-01-17T07:58:24.810Z,18.30
2023-01-17T08:00:53.886Z,18.30
2023-01-17T08:03:22.804Z,18.30
2023-01-17T08:05:57.970Z,18.20
2023-01-17T08:08:27.109Z,18.20
2023-01-17T08:10:56.055Z,18.30
2023-01-17T08:13:25.393Z,18.70
2023-01-17T08:15:54.765Z,19.00
2023-01-17T08:18:23.686Z,19.20
2023-01-17T08:20:52.520Z,19.10
2023-01-17T08:23:23.728Z,18.90
2023-01-17T08:25:52.741Z,18.70
2023-01-17T08:28:21.660Z,18.40
2023-01-17T08:30:50.630Z,18.10
2023-01-17T08:33:19.778Z,17.90
2023-01-17T08:35:54.875Z,17.70
2023-01-17T08:38:25.727Z,17.60
2023-01-17T08:40:55.056Z,17.40
2023-01-17T08:43:24.084Z,17.40
2023-01-17T08:45:56.192Z,17.30
2023-01-17T08:48:25.573Z,17.30
2023-01-17T08:50:54.546Z,17.30
2023-01-17T08:53:24.968Z,17.40
2023-01-17T08:56:00.582Z,17.50
2023-01-17T08:58:31.046Z,17.50
2023-01-17T09:01:02.826Z,17.40
2023-01-17T09:03:32.720Z,17.50
2023-01-17T09:06:06.570Z,17.60
2023-01-17T09:08:37.639Z,17.60
2023-01-17T09:11:07.011Z,17.60
2023-01-17T09:13:36.432Z,17.60
2023-01-17T09:16:07.299Z,17.60
2023-01-17T09:18:38.175Z,17.70
2023-01-17T09:21:14.735Z,17.70
2023-01-17T09:23:46.018Z,17.80
2023-01-17T09:26:20.419Z,17.90
2023-01-17T09:28:49.839Z,18.00
2023-01-17T09:31:21.314Z,18.30
2023-01-17T09:33:50.540Z,18.70
2023-01-17T09:36:19.780Z,19.10
2023-01-17T09:38:50.544Z,19.30
2023-01-17T09:41:27.841Z,19.50
2023-01-17T09:44:06.352Z,19.80
2023-01-17T09:46:40.470Z,20.00
2023-01-17T09:49:14.482Z,20.00
2023-01-17T09:51:45.030Z,20.10
2023-01-17T09:54:21.864Z,20.40
2023-01-17T09:56:58.851Z,20.90
2023-01-17T09:59:34.997Z,21.40
2023-01-17T10:02:19.260Z,21.90
2023-01-17T10:05:00.377Z,22.10
2023-01-17T10:07:42.050Z,21.90
2023-01-17T10:10:36.322Z,21.70
2023-01-17T10:13:15.708Z,21.40
2023-01-17T10:15:55.617Z,21.30
2023-01-17T10:18:44.371Z,21.20
2023-01-17T10:21:22.967Z,21.10
2023-01-17T10:24:16.849Z,21.20
2023-01-17T10:26:51.455Z,21.20
2023-01-17T10:29:22.152Z,21.20
2023-01-17T10:31:55.945Z,21.20
2023-01-17T10:34:29.699Z,21.20
2023-01-17T10:37:05.032Z,21.30
2023-01-17T10:39:34.466Z,21.20
2023-01-17T10:42:14.420Z,20.90
2023-01-17T10:44:50.184Z,20.70
2023-01-17T10:47:22.363Z,20.40
2023-01-17T10:49:54.631Z,20.30
2023-01-17T10:52:36.395Z,20.20
2023-01-17T10:55:22.417Z,20.10
2023-01-17T10:57:54.749Z,20.00
2023-01-17T11:00:44.131Z,19.90
2023-01-17T11:03:14.438Z,19.80
2023-01-17T11:05:44.879Z,19.70
2023-01-17T11:08:15.531Z,19.70
2023-01-17T11:10:47.349Z,19.90
2023-01-17T11:13:27.807Z,20.10
2023-01-17T11:15:59.087Z,20.40
2023-01-17T11:18:31.145Z,20.60
2023-01-17T11:21:18.038Z,20.80
2023-01-17T11:23:48.513Z,20.90
2023-01-17T11:26:26.427Z,21.00
2023-01-17T11:29:16.374Z,21.10
2023-01-17T11:31:45.415Z,21.00
2023-01-17T11:34:19.527Z,21.00
2023-01-17T11:36:50.165Z,21.00
2023-01-17T11:39:30.087Z,21.00
2023-01-17T11:41:59.136Z,21.10
2023-01-17T11:44:31.538Z,21.20
2023-01-17T11:47:15.945Z,21.30
2023-01-17T11:49:46.378Z,21.30
2023-01-17T11:52:24.564Z,21.30
2023-01-17T11:54:55.760Z,21.30
2023-01-17T11:57:28.697Z,21.30
2023-01-17T12:00:11.953Z,21.30
2023-01-17T12:03:14.086Z,21.30
2023-01-17T12:05:54.928Z,21.30
2023-01-17T12:08:45.304Z,21.20
2023-01-17T12:11:18.079Z,21.10
2023-01-17T12:14:01.685Z,21.10
2023-01-17T12:16:55.349Z,21.10
2023-01-17T12:19:41.431Z,21.20
2023-01-17T12:22:53.789Z,21.20
2023-01-17T12:25:39.859Z,21.30
2023-01-17T12:28:20.852Z,21.40
2023-01-17T12:31:04.612Z,21.30
2023-01-17T12:33:47.204Z,21.40
2023-01-17T12:36:31.180Z,21.40
2023-01-17T12:39:03.777Z,21.40
2023-01-17T12:41:36.862Z,21.30
2023-01-17T12:44:06.511Z,21.20
2023-01-17T12:46:39.447Z,21.20
2023-01-17T12:49:24.589Z,21.10
2023-01-17T12:52:19.010Z,21.10
2023-01-17T12:54:51.903Z,21.10
2023-01-17T12:57:24.739Z,21.10
2023-01-17T12:59:59.895Z,21.10
2023-01-17T13:02:37.569Z,21.10
2023-01-17T13:05:12.921Z,21.10
2023-01-17T13:07:49.340Z,21.20
2023-01-17T13:10:26.556Z,21.20
2023-01-17T13:12:59.443Z,21.10
2023-01-17T13:15:35.473Z,21.10
2023-01-17T13:18:10.952Z,21.10
2023-01-17T13:21:08.481Z,21.00
2023-01-17T13:24:03.482Z,20.90
2023-01-17T13:26:46.786Z,20.80
2023-01-17T13:29:28.747Z,20.70
2023-01-17T13:32:04.593Z,20.60
2023-01-17T13:34:51.142Z,20.50
2023-01-17T13:37:47.421Z,20.50
2023-01-17T13:40:34.459Z,20.40
2023-01-17T13:43:06.339Z,20.30
2023-01-17T13:45:37.749Z,20.20
2023-01-17T13:48:27.922Z,20.20
2023-01-17T13:50:57.983Z,20.10
2023-01-17T13:53:59.735Z,20.10
2023-01-17T13:56:31.473Z,20.00
2023-01-17T13:59:28.595Z,20.00
2023-01-17T14:01:58.315Z,19.90
2023-01-17T14:05:05.941Z,19.90
2023-01-17T14:07:37.051Z,19.80
2023-01-17T14:10:38.697Z,19.70
2023-01-17T14:13:34.210Z,19.60
2023-01-17T14:16:07.006Z,19.60
2023-01-17T14:18:40.938Z,19.50
2023-01-17T14:21:15.312Z,19.40
2023-01-17T14:24:01.075Z,19.30
2023-01-17T14:26:46.850Z,19.30
2023-01-17T14:29:52.846Z,19.20
2023-01-17T14:32:25.232Z,19.20
2023-01-17T14:34:55.473Z,19.10
2023-01-17T14:37:43.633Z,19.10
2023-01-17T14:40:18.228Z,19.00
2023-01-17T14:42:48.881Z,19.00
2023-01-17T14:45:24.851Z,19.00
2023-01-17T14:47:57.031Z,19.00
2023-01-17T14:50:29.471Z,19.00
2023-01-17T14:53:28.451Z,18.90
2023-01-17T14:56:00.649Z,18.80
2023-01-17T14:58:31.648Z,18.80
2023-01-17T15:01:03.657Z,18.80
2023-01-17T15:03:37.186Z,18.90
2023-01-17T15:06:13.625Z,18.90
2023-01-17T15:08:43.330Z,18.90
2023-01-17T15:11:19.733Z,18.90
2023-01-17T15:13:51.607Z,18.90
2023-01-17T15:16:24.905Z,18.90
2023-01-17T15:18:57.463Z,18.90
2023-01-17T15:21:29.668Z,18.80
2023-01-17T15:24:00.302Z,18.80
2023-01-17T15:26:33.795Z,18.90
2023-01-17T15:29:06.486Z,18.80
2023-01-17T15:31:44.550Z,18.80
2023-01-17T15:34:26.321Z,18.80
2023-01-17T15:36:57.601Z,18.80
2023-01-17T15:39:30.480Z,18.70
2023-01-17T15:42:01.096Z,18.70
2023-01-17T15:44:48.212Z,18.70
2023-01-17T15:47:29.972Z,18.70
2023-01-17T15:50:01.167Z,18.70
2023-01-17T15:52:30.837Z,18.70
2023-01-17T15:55:12.740Z,18.70
2023-01-17T15:57:44.278Z,18.70
2023-01-17T16:00:22.278Z,18.70
2023-01-17T16:02:55.596Z,18.80
2023-01-17T16:05:44.750Z,18.80
2023-01-17T16:08:38.609Z,18.90
2023-01-17T16:11:09.396Z,18.90
2023-01-17T16:13:42.446Z,18.90
2023-01-17T16:16:20.331Z,19.00
2023-01-17T16:18:50.653Z,19.00
2023-01-17T16:21:24.613Z,19.00
2023-01-17T16:23:53.977Z,18.90
2023-01-17T16:26:23.395Z,18.90
2023-01-17T16:28:53.008Z,18.90
2023-01-17T16:31:22.285Z,18.90
2023-01-17T16:33:52.063Z,18.90
2023-01-17T16:36:23.173Z,18.90
2023-01-17T16:38:53.336Z,18.80
2023-01-17T16:41:23.023Z,18.80
2023-01-17T16:44:00.684Z,18.70
2023-01-17T16:46:30.717Z,18.70
2023-01-17T16:49:02.134Z,18.70
2023-01-17T16:51:33.277Z,18.60
2023-01-17T16:54:03.256Z,18.60
2023-01-17T16:56:32.461Z,18.60
2023-01-17T16:59:01.439Z,18.60
2023-01-17T17:01:30.442Z,18.50
2023-01-17T17:03:59.428Z,18.50
2023-01-17T17:06:28.435Z,18.50
2023-01-17T17:09:00.619Z,18.50
2023-01-17T17:11:29.700Z,18.40
2023-01-17T17:13:58.628Z,18.30
2023-01-17T17:16:30.122Z,18.30
2023-01-17T17:19:00.737Z,18.30
2023-01-17T17:21:30.813Z,18.30
2023-01-17T17:24:02.607Z,18.30
2023-01-17T17:26:34.701Z,18.40
2023-01-17T17:29:04.498Z,18.40
2023-01-17T17:31:33.608Z,18.50
2023-01-17T17:34:03.737Z,18.50
2023-01-17T17:36:32.903Z,18.60
2023-01-17T17:39:04.972Z,18.60
2023-01-17T17:41:35.837Z,18.60
2023-01-17T17:44:05.888Z,18.60
2023-01-17T17:46:37.590Z,18.60
2023-01-17T17:49:07.201Z,18.60
2023-01-17T17:51:37.429Z,18.70
2023-01-17T17:54:09.733Z,18.70
2023-01-17T17:56:40.898Z,18.70
2023-01-17T17:59:12.772Z,18.80
2023-01-17T18:01:42.346Z,18.80
2023-01-17T18:04:12.600Z,18.80
2023-01-17T18:06:42.619Z,18.80
2023-01-17T18:09:31.923Z,18.80
2023-01-17T18:12:03.412Z,18.80
2023-01-17T18:14:33.545Z,18.90
2023-01-17T18:17:03.291Z,18.90
2023-01-17T18:19:32.230Z,18.90
2023-01-17T18:22:03.677Z,19.00
2023-01-17T18:24:34.134Z,19.00
2023-01-17T18:27:03.356Z,19.10
2023-01-17T18:29:33.480Z,19.10
2023-01-17T18:32:04.263Z,19.10
2023-01-17T18:34:35.833Z,19.20
2023-01-17T18:37:05.118Z,19.20
2023-01-17T18:39:36.003Z,19.30
2023-01-17T18:42:05.917Z,19.30
2023-01-17T18:44:35.028Z,19.30
2023-01-17T18:47:04.907Z,19.20
2023-01-17T18:49:35.205Z,19.20
2023-01-17T18:52:05.421Z,19.20
2023-01-17T18:54:36.416Z,19.20
2023-01-17T18:57:05.744Z,19.20
2023-01-17T18:59:35.201Z,19.20
2023-01-17T19:02:04.516Z,19.20
2023-01-17T19:04:35.907Z,19.10
2023-01-17T19:07:05.098Z,19.10
2023-01-17T19:09:36.284Z,19.10
2023-01-17T19:12:05.442Z,19.10
2023-01-17T19:14:34.525Z,19.10
2023-01-17T19:17:04.732Z,19.20
2023-01-17T19:19:33.788Z,19.20
2023-01-17T19:22:03.118Z,19.20
2023-01-17T19:24:32.358Z,19.10
2023-01-17T19:27:07.160Z,19.00
2023-01-17T19:29:36.508Z,19.00
2023-01-17T19:32:05.484Z,18.90
2023-01-17T19:34:34.661Z,18.90
2023-01-17T19:37:06.550Z,18.90
2023-01-17T19:39:35.805Z,18.80
2023-01-17T19:42:09.527Z,18.80
2023-01-17T19:44:38.502Z,18.70
2023-01-17T19:47:07.560Z,18.80
2023-01-17T19:49:36.668Z,18.80
2023-01-17T19:52:05.913Z,18.90
2023-01-17T19:54:35.285Z,18.90
2023-01-17T19:57:05.708Z,18.90
2023-01-17T19:59:34.695Z,19.00
2023-01-17T20:02:03.883Z,19.00
2023-01-17T20:04:33.088Z,19.00
2023-01-17T20:07:02.976Z,19.00
2023-01-17T20:09:33.217Z,19.00
2023-01-17T20:12:02.453Z,19.10
2023-01-17T20:14:32.929Z,19.10
2023-01-17T20:17:01.895Z,19.10
2023-01-17T20:19:31.267Z,19.10
2023-01-17T20:22:00.118Z,19.20
2023-01-17T20:24:29.179Z,19.20
2023-01-17T20:26:58.587Z,19.20
2023-01-17T20:29:27.610Z,19.20
2023-01-17T20:31:58.067Z,19.30
2023-01-17T20:34:27.259Z,19.30
2023-01-17T20:36:58.209Z,19.30
2023-01-17T20:39:27.198Z,19.30
2023-01-17T20:41:56.251Z,19.30
2023-01-17T20:44:25.771Z,19.20
2023-01-17T20:46:54.807Z,19.20
2023-01-17T20:49:25.287Z,19.30
2023-01-17T20:51:56.315Z,19.30
2023-01-17T20:54:44.845Z,19.30
2023-01-17T20:57:13.814Z,19.40
2023-01-17T20:59:42.870Z,19.40
2023-01-17T21:02:12.082Z,19.50
2023-01-17T21:04:42.601Z,19.60
2023-01-17T21:07:12.036Z,19.60
2023-01-17T21:09:42.965Z,19.60
2023-01-17T21:12:12.145Z,19.60
2023-01-17T21:14:43.167Z,19.50
2023-01-17T21:17:12.443Z,19.50
2023-01-17T21:19:43.354Z,19.50
2023-01-17T21:22:15.049Z,19.40
2023-01-17T21:24:44.311Z,19.40
2023-01-17T21:27:13.178Z,19.40
2023-01-17T21:29:42.076Z,19.40
2023-01-17T21:32:11.217Z,19.40
2023-01-17T21:34:41.654Z,19.40
2023-01-17T21:37:10.601Z,19.40
2023-01-17T21:40:00.492Z,19.30
2023-01-17T21:42:31.417Z,19.30
2023-01-17T21:45:00.639Z,19.30
2023-01-17T21:47:29.674Z,19.30
2023-01-17T21:50:00.156Z,19.30
2023-01-17T21:52:30.261Z,19.20
2023-01-17T21:55:16.443Z,19.20
2023-01-17T21:58:02.803Z,19.20
2023-01-17T22:00:31.978Z,19.10
2023-01-17T22:03:01.102Z,19.10
2023-01-17T22:05:31.508Z,19.00
2023-01-17T22:08:15.704Z,19.00
2023-01-17T22:10:48.252Z,19.00
2023-01-17T22:13:19.180Z,19.00
2023-01-17T22:15:58.733Z,19.00
2023-01-17T22:18:28.190Z,19.00
2023-01-17T22:20:59.223Z,19.00
2023-01-17T22:23:28.723Z,19.00
2023-01-17T22:26:03.418Z,18.90
2023-01-17T22:28:33.396Z,18.90
2023-01-17T22:31:10.804Z,18.90
2023-01-17T22:33:40.949Z,18.80
2023-01-17T22:36:14.951Z,18.80
2023-01-17T22:38:44.778Z,18.70
2023-01-17T22:41:16.323Z,18.70
2023-01-17T22:43:48.052Z,18.70
2023-01-17T22:46:19.842Z,18.70
2023-01-17T22:48:49.136Z,18.70
2023-01-17T22:51:21.490Z,18.70
2023-01-17T22:53:52.262Z,18.70
2023-01-17T22:56:22.976Z,18.70
2023-01-17T22:58:52.375Z,18.70
2023-01-17T23:01:23.280Z,18.70
2023-01-17T23:03:54.811Z,18.70
2023-01-17T23:06:27.496Z,18.60
2023-01-17T23:08:58.085Z,18.60
2023-01-17T23:11:42.807Z,18.60
2023-01-17T23:14:15.219Z,18.50
2023-01-17T23:17:02.737Z,18.50
2023-01-17T23:19:34.575Z,18.60
2023-01-17T23:22:20.483Z,18.70
2023-01-17T23:24:52.193Z,18.70
2023-01-17T23:27:40.116Z,18.70
2023-01-17T23:30:12.767Z,18.90
2023-01-17T23:32:45.250Z,18.60
2023-01-17T23:35:14.417Z,18.60
2023-01-17T23:38:02.322Z,18.60
2023-01-17T23:40:33.265Z,18.60
2023-01-17T23:43:19.212Z,18.70
2023-01-17T23:45:48.256Z,18.70
2023-01-17T23:48:17.710Z,18.70
2023-01-17T23:50:49.327Z,18.80
2023-01-17T23:53:23.348Z,18.80
2023-01-17T23:55:54.466Z,18.80
2023-01-17T23:58:25.477Z,18.80
